createdAt,value
2024-03-29T00:00:48.807Z,84.52
2024-03-29T00:01:49.055Z,84.61
2024-03-29T00:02:48.738Z,84.61
2024-03-29T00:03:48.709Z,84.72
2024-03-29T00:04:48.670Z,84.72
2024-03-29T00:05:48.633Z,85.23
2024-03-29T00:06:48.875Z,85.23
2024-03-29T00:07:48.563Z,85.03
2024-03-29T00:08:48.533Z,85.95
2024-03-29T00:09:48.497Z,86.46
2024-03-29T00:10:48.522Z,86.57
2024-03-29T00:11:48.737Z,86.25
2024-03-29T00:12:48.393Z,86.46
2024-03-29T00:13:48.369Z,86.87
2024-03-29T00:14:48.321Z,87.08
2024-03-29T00:15:48.297Z,86.81
2024-03-29T00:16:48.581Z,87.63
2024-03-29T00:17:48.223Z,87.43
2024-03-29T00:18:48.190Z,87.73
2024-03-29T00:19:48.154Z,88.04
2024-03-29T00:20:48.405Z,88.04
2024-03-29T00:21:48.083Z,88.04
2024-03-29T00:22:48.050Z,88.14
2024-03-29T00:23:48.018Z,87.94
2024-03-29T00:24:47.987Z,88.39
2024-03-29T00:25:48.233Z,88.49
2024-03-29T00:26:47.943Z,88.59
2024-03-29T00:27:47.877Z,89.01
2024-03-29T00:28:47.860Z,89.21
2024-03-29T00:29:47.808Z,89.93
2024-03-29T00:30:48.064Z,90.44
2024-03-29T00:31:47.741Z,90.18
2024-03-29T00:32:47.704Z,90.59
2024-03-29T00:33:47.676Z,90.38
2024-03-29T00:34:47.640Z,91.10
2024-03-29T00:35:47.886Z,90.89
2024-03-29T00:36:47.569Z,91.31
2024-03-29T00:37:47.531Z,91.41
2024-03-29T00:38:47.506Z,91.41
2024-03-29T00:39:47.478Z,92.03
2024-03-29T00:40:47.715Z,91.66
2024-03-29T00:41:47.394Z,92.38
2024-03-29T00:42:47.367Z,91.76
2024-03-29T00:43:47.325Z,91.97
2024-03-29T00:44:47.288Z,91.97
2024-03-29T00:45:47.257Z,92.42
2024-03-29T00:46:47.561Z,93.14
2024-03-29T00:47:47.188Z,93.14
2024-03-29T00:48:47.148Z,93.35
2024-03-29T00:49:47.123Z,93.35
2024-03-29T00:50:47.384Z,93.49
2024-03-29T00:51:47.048Z,93.76
2024-03-29T00:52:47.017Z,93.80
2024-03-29T00:53:46.997Z,94.21
2024-03-29T00:54:46.973Z,94.21
2024-03-29T00:55:47.197Z,94.26
2024-03-29T00:56:46.875Z,94.56
2024-03-29T00:57:46.841Z,94.67
2024-03-29T00:58:46.813Z,94.36
2024-03-29T00:59:46.774Z,94.36
2024-03-29T01:00:47.028Z,95.23
2024-03-29T01:01:46.709Z,95.33
2024-03-29T01:02:46.672Z,95.53
2024-03-29T01:03:46.635Z,94.92
2024-03-29T01:04:46.601Z,94.92
2024-03-29T01:05:46.856Z,95.27
2024-03-29T01:06:46.545Z,95.37
2024-03-29T01:07:46.501Z,96.30
2024-03-29T01:08:46.480Z,96.09
2024-03-29T01:09:46.707Z,96.09
2024-03-29T01:10:46.406Z,96.50
2024-03-29T01:11:46.357Z,96.61
2024-03-29T01:12:46.318Z,96.41
2024-03-29T01:13:46.288Z,96.55
2024-03-29T01:14:46.251Z,96.45
2024-03-29T01:15:46.242Z,96.86
2024-03-29T01:16:46.186Z,97.06
2024-03-29T01:17:46.144Z,97.06
2024-03-29T01:18:46.114Z,96.45
2024-03-29T01:19:46.072Z,96.45
2024-03-29T01:20:46.319Z,96.66
2024-03-29T01:21:46.013Z,96.75
2024-03-29T01:22:45.967Z,96.86
2024-03-29T01:23:45.949Z,96.45
2024-03-29T01:24:46.191Z,95.73
2024-03-29T01:25:45.863Z,95.83
2024-03-29T01:26:45.823Z,96.34
2024-03-29T01:27:45.791Z,95.42
2024-03-29T01:28:45.758Z,95.52
2024-03-29T01:29:46.011Z,95.42
2024-03-29T01:30:45.685Z,95.21
2024-03-29T01:31:45.654Z,96.03
2024-03-29T01:32:45.618Z,96.14
2024-03-29T01:33:45.585Z,96.18
2024-03-29T01:34:45.824Z,96.14
2024-03-29T01:35:45.523Z,96.14
2024-03-29T01:36:45.474Z,95.93
2024-03-29T01:37:45.442Z,95.36
2024-03-29T01:38:45.403Z,95.67
2024-03-29T01:39:45.652Z,95.46
2024-03-29T01:40:45.337Z,95.87
2024-03-29T01:41:45.298Z,95.98
2024-03-29T01:42:45.263Z,95.98
2024-03-29T01:43:45.233Z,96.12
2024-03-29T01:44:45.478Z,96.33
2024-03-29T01:45:45.165Z,96.23
2024-03-29T01:46:45.124Z,96.44
2024-03-29T01:47:45.097Z,97.26
2024-03-29T01:48:45.325Z,96.23
2024-03-29T01:49:45.019Z,96.08
2024-03-29T01:50:44.983Z,96.18
2024-03-29T01:51:44.946Z,95.77
2024-03-29T01:52:44.906Z,95.87
2024-03-29T01:53:45.164Z,96.18
2024-03-29T01:54:44.846Z,96.23
2024-03-29T01:55:44.812Z,96.12
2024-03-29T01:56:44.770Z,96.23
2024-03-29T01:57:44.732Z,96.33
2024-03-29T01:58:44.974Z,96.02
2024-03-29T01:59:44.956Z,96.23
2024-03-29T02:00:44.627Z,96.44
2024-03-29T02:01:44.600Z,96.02
2024-03-29T02:02:44.556Z,96.02
2024-03-29T02:03:44.537Z,95.71
2024-03-29T02:04:44.769Z,95.98
2024-03-29T02:05:44.446Z,95.46
2024-03-29T02:06:44.416Z,95.71
2024-03-29T02:07:44.376Z,94.89
2024-03-29T02:08:44.351Z,95.09
2024-03-29T02:09:44.583Z,95.30
2024-03-29T02:10:44.275Z,95.76
2024-03-29T02:11:44.243Z,95.50
2024-03-29T02:12:44.199Z,95.50
2024-03-29T02:13:44.439Z,95.40
2024-03-29T02:14:44.124Z,95.50
2024-03-29T02:15:44.910Z,95.50
2024-03-29T02:16:44.056Z,95.30
2024-03-29T02:17:44.018Z,95.65
2024-03-29T02:18:44.283Z,95.86
2024-03-29T02:19:44.228Z,95.55
2024-03-29T02:20:43.914Z,96.37
2024-03-29T02:21:43.880Z,96.31
2024-03-29T02:22:43.847Z,96.73
2024-03-29T02:23:44.107Z,97.20
2024-03-29T02:24:43.771Z,96.42
2024-03-29T02:25:43.730Z,96.52
2024-03-29T02:26:43.713Z,96.89
2024-03-29T02:27:43.941Z,97.34
2024-03-29T02:28:43.630Z,97.14
2024-03-29T02:29:43.598Z,96.89
2024-03-29T02:30:43.551Z,96.94
2024-03-29T02:31:43.548Z,97.25
2024-03-29T02:32:43.790Z,97.14
2024-03-29T02:33:43.448Z,96.83
2024-03-29T02:34:43.412Z,96.94
2024-03-29T02:35:43.388Z,96.83
2024-03-29T02:36:43.337Z,96.83
2024-03-29T02:37:43.582Z,96.73
2024-03-29T02:38:43.271Z,96.94
2024-03-29T02:39:43.234Z,97.25
2024-03-29T02:40:43.197Z,97.25
2024-03-29T02:41:43.159Z,96.52
2024-03-29T02:42:43.398Z,96.67
2024-03-29T02:43:43.087Z,96.88
2024-03-29T02:44:43.057Z,96.67
2024-03-29T02:45:43.018Z,97.29
2024-03-29T02:46:42.979Z,97.29
2024-03-29T02:47:43.219Z,96.98
2024-03-29T02:48:42.909Z,97.25
2024-03-29T02:49:42.876Z,97.25
2024-03-29T02:50:42.835Z,97.39
2024-03-29T02:51:42.802Z,97.25
2024-03-29T02:52:43.050Z,96.98
2024-03-29T02:53:42.731Z,96.77
2024-03-29T02:54:42.703Z,96.77
2024-03-29T02:55:42.657Z,96.47
2024-03-29T02:56:42.623Z,96.67
2024-03-29T02:57:44.946Z,96.88
2024-03-29T02:58:42.558Z,96.88
2024-03-29T02:59:42.521Z,96.77
2024-03-29T03:00:42.534Z,96.88
2024-03-29T03:01:42.456Z,96.88
2024-03-29T03:02:42.692Z,96.56
2024-03-29T03:03:42.377Z,96.98
2024-03-29T03:04:42.353Z,96.56
2024-03-29T03:05:42.300Z,96.88
2024-03-29T03:06:42.267Z,96.88
2024-03-29T03:07:42.504Z,96.67
2024-03-29T03:08:42.194Z,96.88
2024-03-29T03:09:42.163Z,96.67
2024-03-29T03:10:42.135Z,97.02
2024-03-29T03:11:42.089Z,96.92
2024-03-29T03:12:42.338Z,96.98
2024-03-29T03:13:42.017Z,96.88
2024-03-29T03:14:41.980Z,97.08
2024-03-29T03:15:41.945Z,96.98
2024-03-29T03:16:41.933Z,96.51
2024-03-29T03:17:42.159Z,96.47
2024-03-29T03:18:41.833Z,96.47
2024-03-29T03:19:41.809Z,95.99
2024-03-29T03:20:41.786Z,96.41
2024-03-29T03:21:41.726Z,96.41
2024-03-29T03:22:41.987Z,96.47
2024-03-29T03:23:41.667Z,96.05
2024-03-29T03:24:41.618Z,96.30
2024-03-29T03:25:41.584Z,96.36
2024-03-29T03:26:49.503Z,96.20
2024-03-29T03:27:41.852Z,96.36
2024-03-29T03:28:41.477Z,95.95
2024-03-29T03:29:41.437Z,95.48
2024-03-29T03:30:41.404Z,96.30
2024-03-29T03:31:41.373Z,96.41
2024-03-29T03:32:41.664Z,96.30
2024-03-29T03:33:41.296Z,96.41
2024-03-29T03:34:41.270Z,96.30
2024-03-29T03:35:41.224Z,96.20
2024-03-29T03:36:41.191Z,96.30
2024-03-29T03:37:41.438Z,96.51
2024-03-29T03:38:41.123Z,96.61
2024-03-29T03:39:41.079Z,97.23
2024-03-29T03:40:41.048Z,96.72
2024-03-29T03:41:41.305Z,96.72
2024-03-29T03:42:41.251Z,96.76
2024-03-29T03:43:40.975Z,96.55
2024-03-29T03:44:40.912Z,96.55
2024-03-29T03:45:40.864Z,96.41
2024-03-29T03:46:41.150Z,96.41
2024-03-29T03:47:40.810Z,96.72
2024-03-29T03:48:40.751Z,96.51
2024-03-29T03:49:40.727Z,96.34
2024-03-29T03:50:40.683Z,96.45
2024-03-29T03:51:40.675Z,96.55
2024-03-29T03:52:40.610Z,96.51
2024-03-29T03:53:43.427Z,96.97
2024-03-29T03:54:40.538Z,97.17
2024-03-29T03:55:40.504Z,96.97
2024-03-29T03:56:41.010Z,96.91
2024-03-29T03:57:40.428Z,97.38
2024-03-29T03:58:40.399Z,97.42
2024-03-29T03:59:40.361Z,96.70
2024-03-29T04:00:40.318Z,97.42
2024-03-29T04:01:40.563Z,97.28
2024-03-29T04:02:40.248Z,96.97
2024-03-29T04:03:40.240Z,97.53
2024-03-29T04:04:40.172Z,97.17
2024-03-29T04:05:40.169Z,96.97
2024-03-29T04:06:40.102Z,97.17
2024-03-29T04:07:40.064Z,96.70
2024-03-29T04:08:40.031Z,97.42
2024-03-29T04:09:39.995Z,97.32
2024-03-29T04:10:40.243Z,97.42
2024-03-29T04:11:39.920Z,97.22
2024-03-29T04:12:39.887Z,97.32
2024-03-29T04:13:39.859Z,97.32
2024-03-29T04:14:39.822Z,97.38
2024-03-29T04:15:40.057Z,96.80
2024-03-29T04:16:39.738Z,97.11
2024-03-29T04:17:39.707Z,97.01
2024-03-29T04:18:39.668Z,96.59
2024-03-29T04:19:39.910Z,97.42
2024-03-29T04:20:40.505Z,97.42
2024-03-29T04:21:39.588Z,96.80
2024-03-29T04:22:39.523Z,96.80
2024-03-29T04:23:39.492Z,96.70
2024-03-29T04:24:39.735Z,97.22
2024-03-29T04:25:39.424Z,96.49
2024-03-29T04:26:39.378Z,96.24
2024-03-29T04:27:39.343Z,96.29
2024-03-29T04:28:39.331Z,96.19
2024-03-29T04:29:39.551Z,96.45
2024-03-29T04:30:39.239Z,96.45
2024-03-29T04:31:39.198Z,96.49
2024-03-29T04:32:39.196Z,96.14
2024-03-29T04:33:39.128Z,96.14
2024-03-29T04:34:39.369Z,96.49
2024-03-29T04:35:39.053Z,95.52
2024-03-29T04:36:39.022Z,95.62
2024-03-29T04:37:38.990Z,95.73
2024-03-29T04:38:38.946Z,96.03
2024-03-29T04:39:40.011Z,95.52
2024-03-29T04:40:38.874Z,94.96
2024-03-29T04:41:38.840Z,94.54
2024-03-29T04:42:38.807Z,94.65
2024-03-29T04:43:39.039Z,94.03
2024-03-29T04:44:38.727Z,94.13
2024-03-29T04:45:38.709Z,94.03
2024-03-29T04:46:38.659Z,93.93
2024-03-29T04:47:38.650Z,93.98
2024-03-29T04:48:38.869Z,93.88
2024-03-29T04:49:38.556Z,93.68
2024-03-29T04:50:38.524Z,92.95
2024-03-29T04:51:38.480Z,92.95
2024-03-29T04:52:38.445Z,93.37
2024-03-29T04:53:38.719Z,93.37
2024-03-29T04:54:38.371Z,92.95
2024-03-29T04:55:38.329Z,93.26
2024-03-29T04:56:38.294Z,92.19
2024-03-29T04:57:38.260Z,92.64
2024-03-29T04:58:38.508Z,92.50
2024-03-29T04:59:38.203Z,92.64
2024-03-29T05:00:39.035Z,92.95
2024-03-29T05:01:38.126Z,92.85
2024-03-29T05:02:38.082Z,92.23
2024-03-29T05:03:38.311Z,92.29
2024-03-29T05:04:38.021Z,93.16
2024-03-29T05:05:37.972Z,92.19
2024-03-29T05:06:37.943Z,92.60
2024-03-29T05:07:37.896Z,92.60
2024-03-29T05:08:38.141Z,92.50
2024-03-29T05:09:37.834Z,92.29
2024-03-29T05:10:37.789Z,92.50
2024-03-29T05:11:37.772Z,91.83
2024-03-29T05:12:37.721Z,91.73
2024-03-29T05:13:38.010Z,91.42
2024-03-29T05:14:37.653Z,91.11
2024-03-29T05:15:37.643Z,91.17
2024-03-29T05:16:37.599Z,91.17
2024-03-29T05:17:37.581Z,90.86
2024-03-29T05:18:37.787Z,90.86
2024-03-29T05:19:37.470Z,91.01
2024-03-29T05:20:37.436Z,90.86
2024-03-29T05:21:37.403Z,90.86
2024-03-29T05:22:37.370Z,91.07
2024-03-29T05:23:37.598Z,90.76
2024-03-29T05:24:37.291Z,90.45
2024-03-29T05:25:37.262Z,89.52
2024-03-29T05:26:37.223Z,89.69
2024-03-29T05:27:38.750Z,89.89
2024-03-29T05:28:37.427Z,88.96
2024-03-29T05:29:37.123Z,89.13
2024-03-29T05:30:37.104Z,88.76
2024-03-29T05:31:37.036Z,88.76
2024-03-29T05:32:37.011Z,88.51
2024-03-29T05:33:37.261Z,88.92
2024-03-29T05:34:36.974Z,88.62
2024-03-29T05:35:36.969Z,88.41
2024-03-29T05:36:36.955Z,88.20
2024-03-29T05:37:36.891Z,87.90
2024-03-29T05:38:37.080Z,88.20
2024-03-29T05:39:36.769Z,88.37
2024-03-29T05:40:36.732Z,88.17
2024-03-29T05:41:36.688Z,87.85
2024-03-29T05:42:36.663Z,87.34
2024-03-29T05:43:36.947Z,87.40
2024-03-29T05:44:36.583Z,87.44
2024-03-29T05:45:36.562Z,87.34
2024-03-29T05:46:36.512Z,87.19
2024-03-29T05:47:36.761Z,87.30
2024-03-29T05:48:36.440Z,86.37
2024-03-29T05:49:36.409Z,86.16
2024-03-29T05:50:36.371Z,86.16
2024-03-29T05:51:36.343Z,86.54
2024-03-29T05:52:36.574Z,86.27
2024-03-29T05:53:36.266Z,85.82
2024-03-29T05:54:36.238Z,85.51
2024-03-29T05:55:36.195Z,85.41
2024-03-29T05:56:36.161Z,85.10
2024-03-29T05:57:36.405Z,85.20
2024-03-29T05:58:36.094Z,84.85
2024-03-29T05:59:36.080Z,84.85
2024-03-29T06:00:36.019Z,85.06
2024-03-29T06:01:35.982Z,83.97
2024-03-29T06:02:36.250Z,84.64
2024-03-29T06:03:35.927Z,84.44
2024-03-29T06:04:36.159Z,84.54
2024-03-29T06:05:35.890Z,83.51
2024-03-29T06:06:35.813Z,83.48
2024-03-29T06:07:36.097Z,83.48
2024-03-29T06:08:35.751Z,83.37
2024-03-29T06:09:35.729Z,83.54
2024-03-29T06:10:36.466Z,83.23
2024-03-29T06:11:36.049Z,83.23
2024-03-29T06:12:35.957Z,83.03
2024-03-29T06:13:35.618Z,82.89
2024-03-29T06:14:35.544Z,82.00
2024-03-29T06:15:37.586Z,81.90
2024-03-29T06:16:35.519Z,81.79
2024-03-29T06:17:35.453Z,81.45
2024-03-29T06:18:35.394Z,81.14
2024-03-29T06:19:35.361Z,81.24
2024-03-29T06:20:35.327Z,81.24
2024-03-29T06:21:35.288Z,81.10
2024-03-29T06:22:35.531Z,80.18
2024-03-29T06:23:35.231Z,80.07
2024-03-29T06:24:35.254Z,80.28
2024-03-29T06:25:35.156Z,80.38
2024-03-29T06:26:36.029Z,79.77
2024-03-29T06:27:35.359Z,79.87
2024-03-29T06:28:35.050Z,79.83
2024-03-29T06:29:35.015Z,79.97
2024-03-29T06:30:34.994Z,80.14
2024-03-29T06:31:34.971Z,80.24
2024-03-29T06:32:35.001Z,79.49
2024-03-29T06:33:34.885Z,79.42
2024-03-29T06:34:34.844Z,79.11
2024-03-29T06:35:34.810Z,78.91
2024-03-29T06:36:35.057Z,79.01
2024-03-29T06:37:34.744Z,78.87
2024-03-29T06:38:34.735Z,78.56
2024-03-29T06:39:34.676Z,78.05
2024-03-29T06:40:34.646Z,78.05
2024-03-29T06:41:34.878Z,78.16
2024-03-29T06:42:34.570Z,77.84
2024-03-29T06:43:34.536Z,77.74
2024-03-29T06:44:34.502Z,77.61
2024-03-29T06:45:34.475Z,77.81
2024-03-29T06:46:34.718Z,77.20
2024-03-29T06:47:34.407Z,77.29
2024-03-29T06:48:34.370Z,77.77
2024-03-29T06:49:34.397Z,77.06
2024-03-29T06:50:34.304Z,76.65
2024-03-29T06:51:34.577Z,77.16
2024-03-29T06:52:34.254Z,76.14
2024-03-29T06:53:34.218Z,76.54
2024-03-29T06:54:34.164Z,75.93
2024-03-29T06:55:34.263Z,76.24
2024-03-29T06:56:34.394Z,77.06
2024-03-29T06:57:34.067Z,77.57
2024-03-29T06:58:36.424Z,76.75
2024-03-29T06:59:33.998Z,76.65
2024-03-29T07:00:34.550Z,76.03
2024-03-29T07:01:34.249Z,76.44
2024-03-29T07:02:33.925Z,76.14
2024-03-29T07:03:33.865Z,76.14
2024-03-29T07:04:39.480Z,76.54
2024-03-29T07:05:33.797Z,76.51
2024-03-29T07:06:34.038Z,76.40
2024-03-29T07:07:33.760Z,76.34
2024-03-29T07:08:33.701Z,76.10
2024-03-29T07:09:33.660Z,75.99
2024-03-29T07:10:33.631Z,75.48
2024-03-29T07:11:34.070Z,75.18
2024-03-29T07:12:33.579Z,76.06
2024-03-29T07:13:33.591Z,75.04
2024-03-29T07:14:33.494Z,75.65
2024-03-29T07:15:33.991Z,75.55
2024-03-29T07:16:33.709Z,75.24
2024-03-29T07:17:33.392Z,74.53
2024-03-29T07:18:33.379Z,74.73
2024-03-29T07:19:33.343Z,74.80
2024-03-29T07:20:33.570Z,74.29
2024-03-29T07:21:33.262Z,74.08
2024-03-29T07:22:36.946Z,74.19
2024-03-29T07:23:33.190Z,74.60
2024-03-29T07:24:33.171Z,74.60
2024-03-29T07:25:33.155Z,74.60
2024-03-29T07:26:33.135Z,74.56
2024-03-29T07:27:33.120Z,74.19
2024-03-29T07:28:33.027Z,74.46
2024-03-29T07:29:33.989Z,73.85
2024-03-29T07:30:33.769Z,74.15
2024-03-29T07:31:32.926Z,74.15
2024-03-29T07:32:33.541Z,74.15
2024-03-29T07:33:32.855Z,74.56
2024-03-29T07:34:32.826Z,74.05
2024-03-29T07:35:32.872Z,74.02
2024-03-29T07:36:33.520Z,74.11
2024-03-29T07:37:32.724Z,74.46
2024-03-29T07:38:32.688Z,74.66
2024-03-29T07:39:32.660Z,74.56
2024-03-29T07:40:34.044Z,75.17
2024-03-29T07:41:32.593Z,74.15
2024-03-29T07:42:32.555Z,74.32
2024-03-29T07:43:32.556Z,74.02
2024-03-29T07:44:32.523Z,74.22
2024-03-29T07:45:32.503Z,74.43
2024-03-29T07:46:32.434Z,76.09
2024-03-29T07:47:32.419Z,75.79
2024-03-29T07:48:33.146Z,76.20
2024-03-29T07:49:32.609Z,75.79
2024-03-29T07:50:32.330Z,75.79
2024-03-29T07:51:32.263Z,75.89
2024-03-29T07:52:32.242Z,75.99
2024-03-29T07:53:32.203Z,75.79
2024-03-29T07:54:32.427Z,75.27
2024-03-29T07:55:32.129Z,75.14
2024-03-29T07:56:32.093Z,75.24
2024-03-29T07:57:32.069Z,74.93
2024-03-29T07:58:32.989Z,75.96
2024-03-29T07:59:32.046Z,75.04
2024-03-29T08:00:31.973Z,75.75
2024-03-29T08:01:41.474Z,75.75
2024-03-29T08:02:31.915Z,75.96
2024-03-29T08:03:31.866Z,75.31
2024-03-29T08:04:32.335Z,74.90
2024-03-29T08:05:31.800Z,75.21
2024-03-29T08:06:31.761Z,75.00
2024-03-29T08:07:31.731Z,75.10
2024-03-29T08:08:31.697Z,74.90
2024-03-29T08:09:32.335Z,74.87
2024-03-29T08:10:31.641Z,74.97
2024-03-29T08:11:31.598Z,74.97
2024-03-29T08:12:31.583Z,73.84
2024-03-29T08:13:31.813Z,73.64
2024-03-29T08:14:31.507Z,73.91
2024-03-29T08:15:31.472Z,74.08
2024-03-29T08:16:31.443Z,73.98
2024-03-29T08:17:31.451Z,73.57
2024-03-29T08:18:32.409Z,72.92
2024-03-29T08:19:31.350Z,72.82
2024-03-29T08:20:31.310Z,72.82
2024-03-29T08:21:31.276Z,72.38
2024-03-29T08:22:31.246Z,72.65
2024-03-29T08:23:31.488Z,71.70
2024-03-29T08:24:31.188Z,71.97
2024-03-29T08:25:31.148Z,71.19
2024-03-29T08:26:31.120Z,70.92
2024-03-29T08:27:31.083Z,71.02
2024-03-29T08:28:31.327Z,71.02
2024-03-29T08:29:31.044Z,70.31
2024-03-29T08:30:30.995Z,70.68
2024-03-29T08:31:30.959Z,70.48
2024-03-29T08:32:30.952Z,70.04
2024-03-29T08:33:31.170Z,69.53
2024-03-29T08:34:30.861Z,69.33
2024-03-29T08:35:30.823Z,67.97
2024-03-29T08:36:30.797Z,67.77
2024-03-29T08:37:30.781Z,67.54
2024-03-29T08:38:31.006Z,67.24
2024-03-29T08:39:30.719Z,67.20
2024-03-29T08:40:30.667Z,67.61
2024-03-29T08:41:30.639Z,66.66
2024-03-29T08:42:30.610Z,66.97
2024-03-29T08:43:30.846Z,67.71
2024-03-29T08:44:30.556Z,67.33
2024-03-29T08:45:30.598Z,68.66
2024-03-29T08:46:30.477Z,68.05
2024-03-29T08:47:30.491Z,67.16
2024-03-29T08:48:30.474Z,66.96
2024-03-29T08:49:30.392Z,66.96
2024-03-29T08:50:30.374Z,67.36
2024-03-29T08:51:30.328Z,67.77
2024-03-29T08:52:30.294Z,67.50
2024-03-29T08:53:30.307Z,67.91
2024-03-29T08:54:30.234Z,68.32
2024-03-29T08:55:30.203Z,69.64
2024-03-29T08:56:30.181Z,69.40
2024-03-29T08:57:30.147Z,68.59
2024-03-29T08:58:30.411Z,68.12
2024-03-29T08:59:30.078Z,66.97
2024-03-29T09:00:30.055Z,66.97
2024-03-29T09:01:30.030Z,66.83
2024-03-29T09:02:29.990Z,65.69
2024-03-29T09:03:30.245Z,65.28
2024-03-29T09:04:29.937Z,65.69
2024-03-29T09:05:29.920Z,65.59
2024-03-29T09:06:29.867Z,65.39
2024-03-29T09:07:30.250Z,65.18
2024-03-29T09:08:29.808Z,65.39
2024-03-29T09:09:29.781Z,65.59
2024-03-29T09:10:29.758Z,65.89
2024-03-29T09:11:30.589Z,65.79
2024-03-29T09:12:29.967Z,65.59
2024-03-29T09:13:29.691Z,65.59
2024-03-29T09:14:29.624Z,65.39
2024-03-29T09:15:29.595Z,65.36
2024-03-29T09:16:29.563Z,65.69
2024-03-29T09:17:29.579Z,65.59
2024-03-29T09:18:29.502Z,65.28
2024-03-29T09:19:31.526Z,65.72
2024-03-29T09:20:29.446Z,65.62
2024-03-29T09:21:29.420Z,65.52
2024-03-29T09:22:29.681Z,65.31
2024-03-29T09:23:29.357Z,65.31
2024-03-29T09:24:36.012Z,65.72
2024-03-29T09:25:29.317Z,65.31
2024-03-29T09:26:29.262Z,65.75
2024-03-29T09:27:29.569Z,65.65
2024-03-29T09:28:29.221Z,65.52
2024-03-29T09:29:29.174Z,65.59
2024-03-29T09:30:29.144Z,65.28
2024-03-29T09:31:29.120Z,65.69
2024-03-29T09:32:29.111Z,65.48
2024-03-29T09:33:29.095Z,65.39
2024-03-29T09:34:29.036Z,65.59
2024-03-29T09:35:29.580Z,65.96
2024-03-29T09:36:29.001Z,65.56
2024-03-29T09:37:31.764Z,65.59
2024-03-29T09:38:28.910Z,65.18
2024-03-29T09:39:28.874Z,65.28
2024-03-29T09:40:28.891Z,65.82
2024-03-29T09:41:28.813Z,65.62
2024-03-29T09:42:28.816Z,65.69
2024-03-29T09:43:31.274Z,66.53
2024-03-29T09:44:28.729Z,65.82
2024-03-29T09:45:28.698Z,66.74
2024-03-29T09:46:28.691Z,66.43
2024-03-29T09:47:28.953Z,67.55
2024-03-29T09:48:28.615Z,66.56
2024-03-29T09:49:28.572Z,66.86
2024-03-29T09:50:28.582Z,67.07
2024-03-29T09:51:28.519Z,67.17
2024-03-29T09:52:28.754Z,67.71
2024-03-29T09:53:28.466Z,67.47
2024-03-29T09:54:28.426Z,68.49
2024-03-29T09:55:28.426Z,68.08
2024-03-29T09:56:28.363Z,68.08
2024-03-29T09:57:28.615Z,68.93
2024-03-29T09:58:28.312Z,68.62
2024-03-29T09:59:28.276Z,68.52
2024-03-29T10:00:28.296Z,68.76
2024-03-29T10:01:28.214Z,69.67
2024-03-29T10:02:28.458Z,69.43
2024-03-29T10:03:28.163Z,70.04
2024-03-29T10:04:28.122Z,69.64
2024-03-29T10:05:28.092Z,70.28
2024-03-29T10:06:28.070Z,70.28
2024-03-29T10:07:28.313Z,70.28
2024-03-29T10:08:27.999Z,70.28
2024-03-29T10:09:27.975Z,70.99
2024-03-29T10:10:27.963Z,70.99
2024-03-29T10:11:27.924Z,70.79
2024-03-29T10:12:27.903Z,71.40
2024-03-29T10:13:27.875Z,71.60
2024-03-29T10:14:27.818Z,71.80
2024-03-29T10:15:27.803Z,71.91
2024-03-29T10:16:27.756Z,72.01
2024-03-29T10:17:28.016Z,72.31
2024-03-29T10:18:29.762Z,71.70
2024-03-29T10:19:27.671Z,72.55
2024-03-29T10:20:27.647Z,72.11
2024-03-29T10:21:27.612Z,72.31
2024-03-29T10:22:27.600Z,72.45
2024-03-29T10:23:27.557Z,72.31
2024-03-29T10:24:27.533Z,71.53
2024-03-29T10:25:27.499Z,72.75
2024-03-29T10:26:27.453Z,72.65
2024-03-29T10:27:27.761Z,73.57
2024-03-29T10:28:27.394Z,72.34
2024-03-29T10:29:27.369Z,73.60
2024-03-29T10:30:27.330Z,73.30
2024-03-29T10:31:28.114Z,74.04
2024-03-29T10:32:27.312Z,74.38
2024-03-29T10:33:29.255Z,75.06
2024-03-29T10:34:27.224Z,75.70
2024-03-29T10:35:27.182Z,75.57
2024-03-29T10:36:27.153Z,75.98
2024-03-29T10:37:27.391Z,75.77
2024-03-29T10:38:27.083Z,75.98
2024-03-29T10:39:27.054Z,75.91
2024-03-29T10:40:27.030Z,75.40
2024-03-29T10:41:27.011Z,75.70
2024-03-29T10:42:26.986Z,77.03
2024-03-29T10:43:26.936Z,76.92
2024-03-29T10:44:27.549Z,77.37
2024-03-29T10:45:26.870Z,76.76
2024-03-29T10:46:26.843Z,77.17
2024-03-29T10:47:26.877Z,77.37
2024-03-29T10:48:26.780Z,76.65
2024-03-29T10:49:26.750Z,77.06
2024-03-29T10:50:26.718Z,77.06
2024-03-29T10:51:26.688Z,78.73
2024-03-29T10:52:26.679Z,78.63
2024-03-29T10:53:26.643Z,78.28
2024-03-29T10:54:26.598Z,79.34
2024-03-29T10:55:26.564Z,78.19
2024-03-29T10:56:26.533Z,78.08
2024-03-29T10:57:26.783Z,78.28
2024-03-29T10:58:26.520Z,78.80
2024-03-29T10:59:26.442Z,77.87
2024-03-29T11:00:26.416Z,77.78
2024-03-29T11:01:26.375Z,78.19
2024-03-29T11:02:26.628Z,78.69
2024-03-29T11:03:26.317Z,77.98
2024-03-29T11:04:26.277Z,78.05
2024-03-29T11:05:26.278Z,77.98
2024-03-29T11:06:26.217Z,77.57
2024-03-29T11:07:27.116Z,77.26
2024-03-29T11:08:26.171Z,78.80
2024-03-29T11:09:26.123Z,78.42
2024-03-29T11:10:26.114Z,79.20
2024-03-29T11:11:26.075Z,78.08
2024-03-29T11:12:26.321Z,78.28
2024-03-29T11:13:26.012Z,78.49
2024-03-29T11:14:26.010Z,78.19
2024-03-29T11:15:25.930Z,77.57
2024-03-29T11:16:26.181Z,77.87
2024-03-29T11:17:25.970Z,78.28
2024-03-29T11:18:25.843Z,78.80
2024-03-29T11:19:25.827Z,78.39
2024-03-29T11:20:25.809Z,78.28
2024-03-29T11:21:26.087Z,78.86
2024-03-29T11:22:25.715Z,78.45
2024-03-29T11:23:25.748Z,78.59
2024-03-29T11:24:25.654Z,78.05
2024-03-29T11:25:25.634Z,77.94
2024-03-29T11:26:25.871Z,77.64
2024-03-29T11:27:25.590Z,78.25
2024-03-29T11:28:26.144Z,77.53
2024-03-29T11:29:25.528Z,78.25
2024-03-29T11:30:25.463Z,78.15
2024-03-29T11:31:25.723Z,78.15
2024-03-29T11:32:25.423Z,77.94
2024-03-29T11:33:25.378Z,77.98
2024-03-29T11:34:25.354Z,78.39
2024-03-29T11:35:25.364Z,78.80
2024-03-29T11:36:25.598Z,79.20
2024-03-29T11:37:25.249Z,80.02
2024-03-29T11:38:25.279Z,79.95
2024-03-29T11:39:25.212Z,80.16
2024-03-29T11:40:25.157Z,80.05
2024-03-29T11:41:25.448Z,79.85
2024-03-29T11:42:25.641Z,80.87
2024-03-29T11:43:25.099Z,80.97
2024-03-29T11:44:25.957Z,80.32
2024-03-29T11:45:25.026Z,80.73
2024-03-29T11:46:25.254Z,79.20
2024-03-29T11:47:24.966Z,79.50
2024-03-29T11:48:24.898Z,79.41
2024-03-29T11:49:24.873Z,79.16
2024-03-29T11:50:24.866Z,79.16
2024-03-29T11:51:25.100Z,78.35
2024-03-29T11:52:24.781Z,78.45
2024-03-29T11:53:24.805Z,79.47
2024-03-29T11:54:26.281Z,79.37
2024-03-29T11:55:24.687Z,79.13
2024-03-29T11:56:24.961Z,78.72
2024-03-29T11:57:24.618Z,78.28
2024-03-29T11:58:24.582Z,78.62
2024-03-29T11:59:24.580Z,79.39
2024-03-29T12:00:24.536Z,78.68
2024-03-29T12:01:24.545Z,78.68
2024-03-29T12:02:24.457Z,79.19
2024-03-29T12:03:24.433Z,77.94
2024-03-29T12:04:24.394Z,78.75
2024-03-29T12:05:24.405Z,78.24
2024-03-29T12:06:24.607Z,77.02
2024-03-29T12:07:24.304Z,77.63
2024-03-29T12:08:25.211Z,77.53
2024-03-29T12:09:24.261Z,77.22
2024-03-29T12:10:24.561Z,76.72
2024-03-29T12:11:26.032Z,75.84
2024-03-29T12:12:24.146Z,77.06
2024-03-29T12:13:24.116Z,77.56
2024-03-29T12:14:24.089Z,77.47
2024-03-29T12:15:24.332Z,78.28
2024-03-29T12:16:24.033Z,77.47
2024-03-29T12:17:24.011Z,77.47
2024-03-29T12:18:23.969Z,77.87
2024-03-29T12:19:23.933Z,76.82
2024-03-29T12:20:23.908Z,77.63
2024-03-29T12:21:24.145Z,76.82
2024-03-29T12:22:23.861Z,75.97
2024-03-29T12:23:23.829Z,75.49
2024-03-29T12:24:23.773Z,75.49
2024-03-29T12:25:23.742Z,75.46
2024-03-29T12:26:24.177Z,75.26
2024-03-29T12:27:23.680Z,74.51
2024-03-29T12:28:23.863Z,74.48
2024-03-29T12:29:23.618Z,75.29
2024-03-29T12:30:23.587Z,73.73
2024-03-29T12:31:23.842Z,73.90
2024-03-29T12:32:23.534Z,73.76
2024-03-29T12:33:23.492Z,72.11
2024-03-29T12:34:23.466Z,70.79
2024-03-29T12:35:23.499Z,71.60
2024-03-29T12:36:23.692Z,71.09
2024-03-29T12:37:23.372Z,71.06
2024-03-29T12:38:23.400Z,71.88
2024-03-29T12:39:23.326Z,71.06
2024-03-29T12:40:23.300Z,70.62
2024-03-29T12:41:23.547Z,70.02
2024-03-29T12:42:23.238Z,69.48
2024-03-29T12:43:23.191Z,69.81
2024-03-29T12:44:23.174Z,70.12
2024-03-29T12:45:23.131Z,69.38
2024-03-29T12:46:23.391Z,69.18
2024-03-29T12:47:23.095Z,68.37
2024-03-29T12:48:23.042Z,70.09
2024-03-29T12:49:23.012Z,69.21
2024-03-29T12:50:23.269Z,69.44
2024-03-29T12:51:22.955Z,70.15
2024-03-29T12:52:22.942Z,70.25